ENGLEBRIGHT (USACE) (ENG)

Elevation: 551' · YUBA R basin · Operator: US Army Corps of Engineers

Provisional data, subject to change.
Query executed Saturday at 20:12:41   clock

Select a sensor type for a plot of data.
Note: Reservoir Flows are daily averages.

Earlier

Date RES ELE    STORAGE    RES CHG    OUTFLOW    INFLOW    PPT INC   
 FEET   AF   AF   CFS   CFS   INCHES  
03/20/2014 520.01 64440 981 518 1012 0.00
03/21/2014 520.09 64502 62 487 518 0.00
03/22/2014 519.60 64127 -375 486 297 0.00
03/23/2014 519.16 63792 -335 486 318 0.00
03/24/2014 519.92 64371 579 521 813 0.00
03/25/2014 519.20 63823 -548 520 244 0.00
03/26/2014 518.55 63331 -492 520 272 0.02
03/27/2014 518.00 62916 -415 519 310 0.01
03/28/2014 517.54 62572 -344 518 345 0.00
03/29/2014 519.34 63929 1357 484 1169 0.00
03/30/2014 522.96 66728 2799 619 2030 0.00
03/31/2014 523.50 67153 425 705 920 0.39
04/01/2014 524.59 68019 866 713 1150 0.30
04/02/2014 524.99 68338 319 746 907 0.01
04/03/2014 524.94 68298 -40 694 674 0.00
04/04/2014 524.90 68266 -32 694 678 0.08
04/05/2014 524.88 68250 -16 533 525 0.00
04/06/2014 524.73 68130 -120 522 462 0.00
04/07/2014 524.62 68043 -87 522 478 0.00
04/08/2014 524.31 67796 -247 566 441 0.00
04/09/2014 523.88 67454 -342 329 157 0.00
04/10/2014 523.35 67035 -419 616 404 0.00
04/11/2014 523.09 66830 -205 622 518 0.00
04/12/2014 523.39 67067 237 626 746 0.00
04/13/2014 523.70 67312 245 627 750 0.00
04/14/2014 524.45 67907 595 628 928 0.00
04/15/2014 524.29 67780 -127 668 604 0.00
04/16/2014 523.54 67185 -595 701 401 0.00
04/17/2014 522.53 66391 -794 732 332 0.00
04/18/2014 521.36 65480 -911 755 295 0.00
04/19/2014 -- -- -- -- -- --

Later | Latest

Warning! This data is preliminary and subject to revision.

Download Data Now Download Data Now | Show ENG Map | Plot ENG Data | 1 Month ENG Data | Real-Time ENG Data | ENG Info